Time;durP1;ratioP1;P1;durP2;ratioP2;P2;SDS_P1;SDS_P2;PMS_P1;PMS_P2;Temp;Humidity;BMP_temperature;BMP_pressure;BME280_temperature;BME280_humidity;BME280_pressure;Samples;Min_cycle;Max_cycle;Signal;HPM_P1;HPM_P2
2023/05/03 00:00:58;;;;;;;0.60;0.60;;;;;;;;;;5061292;28;20198;-81
2023/05/03 00:03:25;;;;;;;0.60;0.60;;;;;;;;;;5060677;28;20180;-80
2023/05/03 00:05:51;;;;;;;0.60;0.60;;;;;;;;;;5061482;28;20207;-80
2023/05/03 00:08:17;;;;;;;0.60;0.60;;;;;;;;;;5060239;28;20182;-80
2023/05/03 00:10:43;;;;;;;0.50;0.50;;;;;;;;;;5060972;28;20342;-80
2023/05/03 00:13:09;;;;;;;0.60;0.60;;;;;;;;;;5060213;28;20288;-81
2023/05/03 00:15:35;;;;;;;0.70;0.70;;;;;;;;;;5061121;28;20570;-80
2023/05/03 00:18:01;;;;;;;0.53;0.53;;;;;;;;;;5061293;28;20219;-80
2023/05/03 00:20:27;;;;;;;0.50;0.50;;;;;;;;;;5043050;28;20187;-79
2023/05/03 00:22:53;;;;;;;0.60;0.60;;;;;;;;;;5060875;28;20266;-80
2023/05/03 00:25:19;;;;;;;0.70;0.70;;;;;;;;;;5061258;28;20245;-80
2023/05/03 00:27:45;;;;;;;0.60;0.60;;;;;;;;;;5061626;28;20909;-81
2023/05/03 00:30:11;;;;;;;0.60;0.60;;;;;;;;;;5078305;28;20175;-80
2023/05/03 00:32:38;;;;;;;0.60;0.60;;;;;;;;;;5078199;28;20203;-81
2023/05/03 00:35:04;;;;;;;0.60;0.60;;;;;;;;;;5077529;28;20179;-79
2023/05/03 00:37:30;;;;;;;0.57;0.57;;;;;;;;;;5077696;28;20183;-80
2023/05/03 00:39:56;;;;;;;0.70;0.70;;;;;;;;;;5076940;28;20183;-80
2023/05/03 00:42:22;;;;;;;0.50;0.50;;;;;;;;;;5077102;28;20174;-80
2023/05/03 00:44:48;;;;;;;0.70;0.70;;;;;;;;;;5070588;28;20194;-80
2023/05/03 00:47:15;;;;;;;0.67;0.67;;;;;;;;;;5063587;28;20179;-81
2023/05/03 00:49:41;;;;;;;0.60;0.60;;;;;;;;;;5063025;28;20179;-80
2023/05/03 00:52:08;;;;;;;0.60;0.60;;;;;;;;;;5063208;28;20218;-81
2023/05/03 00:54:34;;;;;;;0.60;0.60;;;;;;;;;;5061584;28;20195;-81
2023/05/03 00:57:01;;;;;;;0.67;0.67;;;;;;;;;;5062121;28;20198;-81
2023/05/03 00:59:27;;;;;;;0.50;0.50;;;;;;;;;;5062656;28;20634;-80
2023/05/03 01:01:53;;;;;;;0.60;0.60;;;;;;;;;;5063363;28;20194;-80
2023/05/03 01:04:20;;;;;;;0.50;0.50;;;;;;;;;;5063751;28;20211;-80
2023/05/03 01:07:05;;;;;;;0.60;0.60;;;;;;;;;;5064400;28;20183;-79
2023/05/03 01:09:50;;;;;;;0.63;0.63;;;;;;;;;;5064087;28;20312;-79
2023/05/03 01:12:16;;;;;;;0.70;0.70;;;;;;;;;;5062809;28;20210;-79
2023/05/03 01:14:44;;;;;;;0.60;0.60;;;;;;;;;;5061357;28;20192;-81
2023/05/03 01:17:11;;;;;;;0.70;0.70;;;;;;;;;;5060047;28;20244;-80
2023/05/03 01:19:43;;;;;;;0.53;0.53;;;;;;;;;;5060424;28;20182;-81
2023/05/03 01:22:25;;;;;;;0.60;0.60;;;;;;;;;;5060130;28;20182;-81
2023/05/03 01:24:59;;;;;;;0.60;0.60;;;;;;;;;;5060149;28;20202;-79
2023/05/03 01:27:25;;;;;;;0.63;0.63;;;;;;;;;;5059927;28;20278;-79
2023/05/03 01:29:51;;;;;;;0.70;0.70;;;;;;;;;;5059867;28;20584;-80
2023/05/03 01:32:23;;;;;;;0.60;0.60;;;;;;;;;;5058870;28;20210;-80
2023/05/03 01:35:13;;;;;;;0.60;0.60;;;;;;;;;;5059093;28;20557;-80
2023/05/03 01:37:39;;;;;;;0.60;0.60;;;;;;;;;;5012394;28;20180;-81
2023/05/03 01:40:06;;;;;;;0.60;0.60;;;;;;;;;;5059615;28;20191;-80
2023/05/03 01:42:33;;;;;;;0.67;0.67;;;;;;;;;;5057542;28;20895;-80
2023/05/03 01:45:02;;;;;;;0.60;0.60;;;;;;;;;;5056888;28;20221;-79
2023/05/03 01:47:28;;;;;;;0.70;0.70;;;;;;;;;;5056530;28;20195;-80
2023/05/03 01:49:54;;;;;;;0.60;0.60;;;;;;;;;;5055949;28;20247;-80
2023/05/03 01:52:20;;;;;;;0.60;0.60;;;;;;;;;;5056057;28;20566;-80
2023/05/03 01:54:46;;;;;;;0.60;0.60;;;;;;;;;;5056721;28;20187;-79
2023/05/03 01:57:12;;;;;;;0.60;0.60;;;;;;;;;;5057009;28;20688;-80
2023/05/03 01:59:38;;;;;;;0.60;0.60;;;;;;;;;;5056804;28;20533;-80
2023/05/03 02:02:04;;;;;;;0.63;0.63;;;;;;;;;;5056753;28;20183;-80
2023/05/03 02:04:30;;;;;;;0.70;0.70;;;;;;;;;;5056064;28;20229;-80
2023/05/03 02:06:56;;;;;;;0.60;0.60;;;;;;;;;;5055901;28;20175;-80
2023/05/03 02:09:22;;;;;;;0.60;0.60;;;;;;;;;;5056023;28;20175;-80
2023/05/03 02:11:48;;;;;;;0.70;0.70;;;;;;;;;;5056008;28;20198;-79
2023/05/03 02:14:14;;;;;;;0.70;0.70;;;;;;;;;;5055084;28;20205;-79
2023/05/03 02:16:40;;;;;;;0.73;0.73;;;;;;;;;;5037787;28;20635;-80
2023/05/03 02:19:07;;;;;;;0.67;0.67;;;;;;;;;;5055196;28;20186;-79
2023/05/03 02:21:33;;;;;;;0.80;0.80;;;;;;;;;;5055844;28;20516;-80
2023/05/03 02:23:59;;;;;;;0.60;0.60;;;;;;;;;;5055052;28;20199;-80
2023/05/03 02:26:26;;;;;;;0.70;0.70;;;;;;;;;;5055595;28;20194;-80
2023/05/03 02:28:52;;;;;;;0.67;0.67;;;;;;;;;;5055856;28;20179;-80
2023/05/03 02:31:18;;;;;;;0.67;0.67;;;;;;;;;;5055515;28;20503;-80
2023/05/03 02:33:44;;;;;;;0.50;0.50;;;;;;;;;;5055249;28;20221;-80
2023/05/03 02:36:10;;;;;;;0.70;0.70;;;;;;;;;;5055062;28;20178;-80
2023/05/03 02:38:36;;;;;;;0.60;0.60;;;;;;;;;;5055302;28;20186;-79
2023/05/03 02:41:02;;;;;;;0.60;0.60;;;;;;;;;;5055076;28;20175;-79
2023/05/03 02:43:28;;;;;;;0.50;0.50;;;;;;;;;;5054031;28;20682;-80
2023/05/03 02:45:53;;;;;;;0.70;0.70;;;;;;;;;;5054388;28;20179;-79
2023/05/03 02:48:19;;;;;;;0.70;0.70;;;;;;;;;;5054319;28;20182;-79
2023/05/03 02:50:45;;;;;;;0.60;0.60;;;;;;;;;;5054451;28;20501;-79
2023/05/03 02:53:11;;;;;;;0.60;0.60;;;;;;;;;;5054483;28;20222;-79
2023/05/03 02:55:37;;;;;;;0.60;0.60;;;;;;;;;;5055102;28;20249;-79
2023/05/03 02:58:03;;;;;;;0.63;0.63;;;;;;;;;;5054976;28;20179;-78
2023/05/03 03:00:29;;;;;;;0.57;0.57;;;;;;;;;;5055699;28;20176;-79
2023/05/03 03:02:55;;;;;;;0.70;0.70;;;;;;;;;;5058743;28;20195;-79
2023/05/03 03:05:21;;;;;;;0.70;0.70;;;;;;;;;;5058742;28;20202;-79
2023/05/03 03:07:47;;;;;;;0.70;0.70;;;;;;;;;;5059118;28;20189;-80
2023/05/03 03:10:13;;;;;;;0.70;0.70;;;;;;;;;;5057531;28;20414;-79
2023/05/03 03:12:39;;;;;;;0.70;0.70;;;;;;;;;;5056803;28;20206;-78
2023/05/03 03:15:06;;;;;;;0.60;0.60;;;;;;;;;;5060893;28;20214;-79
2023/05/03 03:17:32;;;;;;;0.53;0.53;;;;;;;;;;5057831;28;20651;-79
2023/05/03 03:19:58;;;;;;;0.60;0.60;;;;;;;;;;5058267;28;20191;-79
2023/05/03 03:22:24;;;;;;;0.60;0.60;;;;;;;;;;5057434;28;20205;-79
2023/05/03 03:24:51;;;;;;;0.70;0.70;;;;;;;;;;5058213;28;20199;-80
2023/05/03 03:27:17;;;;;;;0.60;0.60;;;;;;;;;;5058572;28;20598;-79
2023/05/03 03:29:43;;;;;;;0.70;0.70;;;;;;;;;;5058915;28;20175;-80
2023/05/03 03:32:09;;;;;;;0.60;0.60;;;;;;;;;;5058613;28;20682;-80
2023/05/03 03:34:35;;;;;;;0.70;0.70;;;;;;;;;;5056901;28;20223;-79
2023/05/03 03:37:00;;;;;;;0.70;0.70;;;;;;;;;;5058005;28;20179;-79
2023/05/03 03:39:26;;;;;;;0.57;0.57;;;;;;;;;;5057596;28;20651;-80
2023/05/03 03:41:52;;;;;;;0.70;0.70;;;;;;;;;;5057522;28;20583;-80
2023/05/03 03:44:19;;;;;;;0.70;0.70;;;;;;;;;;5059048;28;20210;-80
2023/05/03 03:46:44;;;;;;;0.60;0.60;;;;;;;;;;5059996;28;20175;-80
2023/05/03 03:49:10;;;;;;;0.53;0.53;;;;;;;;;;5059539;28;20205;-79
2023/05/03 03:51:37;;;;;;;0.70;0.70;;;;;;;;;;5059553;28;20171;-80
2023/05/03 03:54:04;;;;;;;0.57;0.57;;;;;;;;;;5058505;28;20217;-81
2023/05/03 03:56:30;;;;;;;0.63;0.63;;;;;;;;;;5058277;28;20185;-79
2023/05/03 03:58:56;;;;;;;0.67;0.67;;;;;;;;;;5057473;28;20266;-80
2023/05/03 04:01:22;;;;;;;0.60;0.60;;;;;;;;;;5058916;28;20194;-80
2023/05/03 04:03:48;;;;;;;0.60;0.60;;;;;;;;;;5058761;28;20199;-79
2023/05/03 04:06:14;;;;;;;0.60;0.60;;;;;;;;;;5060120;28;20179;-81
2023/05/03 04:08:40;;;;;;;0.60;0.60;;;;;;;;;;5059400;28;20167;-79
2023/05/03 04:11:13;;;;;;;0.67;0.67;;;;;;;;;;5059007;28;20184;-79
2023/05/03 04:13:39;;;;;;;0.57;0.57;;;;;;;;;;5059436;28;20219;-78
2023/05/03 04:16:05;;;;;;;0.60;0.60;;;;;;;;;;5059595;28;20198;-80
2023/05/03 04:18:31;;;;;;;0.60;0.60;;;;;;;;;;5059366;28;20175;-79
2023/05/03 04:20:57;;;;;;;0.67;0.67;;;;;;;;;;5058725;28;20191;-80
2023/05/03 04:23:23;;;;;;;0.80;0.80;;;;;;;;;;5058593;28;20176;-79
2023/05/03 04:25:49;;;;;;;0.67;0.67;;;;;;;;;;5059457;28;20251;-79
2023/05/03 04:28:15;;;;;;;0.70;0.70;;;;;;;;;;5060046;28;20171;-80
2023/05/03 04:30:46;;;;;;;0.60;0.60;;;;;;;;;;5059502;28;20164;-80
2023/05/03 04:33:12;;;;;;;0.60;0.60;;;;;;;;;;5059082;28;20721;-80
2023/05/03 04:35:38;;;;;;;0.70;0.70;;;;;;;;;;5059401;28;20171;-79
2023/05/03 04:38:04;;;;;;;0.70;0.70;;;;;;;;;;5059616;28;20179;-79
2023/05/03 04:40:31;;;;;;;0.60;0.60;;;;;;;;;;5076929;28;20636;-79
2023/05/03 04:42:57;;;;;;;0.60;0.60;;;;;;;;;;5079379;28;20174;-79
2023/05/03 04:45:23;;;;;;;0.80;0.80;;;;;;;;;;5078414;28;20649;-80
2023/05/03 04:47:49;;;;;;;0.67;0.67;;;;;;;;;;5077840;28;20178;-80
2023/05/03 04:50:15;;;;;;;0.70;0.70;;;;;;;;;;5078752;28;20179;-79
2023/05/03 04:52:41;;;;;;;0.60;0.60;;;;;;;;;;5078947;28;20202;-79
2023/05/03 04:55:07;;;;;;;0.80;0.80;;;;;;;;;;5078531;28;20213;-79
2023/05/03 04:57:33;;;;;;;0.60;0.60;;;;;;;;;;5078868;28;20534;-79
2023/05/03 04:59:59;;;;;;;0.60;0.60;;;;;;;;;;5078016;28;20171;-78
2023/05/03 05:02:26;;;;;;;0.60;0.60;;;;;;;;;;5078440;28;20344;-79
2023/05/03 05:04:52;;;;;;;0.67;0.67;;;;;;;;;;5077735;28;20232;-80
2023/05/03 05:07:18;;;;;;;0.57;0.57;;;;;;;;;;5078266;28;20649;-78
2023/05/03 05:09:44;;;;;;;0.60;0.60;;;;;;;;;;5078913;28;20182;-81
2023/05/03 05:12:10;;;;;;;0.60;0.60;;;;;;;;;;5078437;28;20214;-82
2023/05/03 05:14:36;;;;;;;0.70;0.70;;;;;;;;;;5075316;28;20187;-79
2023/05/03 05:17:02;;;;;;;0.60;0.60;;;;;;;;;;5059091;28;20654;-79
2023/05/03 05:19:28;;;;;;;0.60;0.60;;;;;;;;;;5059193;28;20175;-78
2023/05/03 05:21:55;;;;;;;0.70;0.70;;;;;;;;;;5057786;28;20198;-79
2023/05/03 05:24:21;;;;;;;0.60;0.60;;;;;;;;;;5057496;28;20198;-80
2023/05/03 05:26:47;;;;;;;0.60;0.60;;;;;;;;;;5057892;28;20175;-80
2023/05/03 05:29:13;;;;;;;0.50;0.50;;;;;;;;;;5058761;28;20174;-78
2023/05/03 05:31:39;;;;;;;0.60;0.60;;;;;;;;;;5059002;28;20175;-79
2023/05/03 05:34:05;;;;;;;0.60;0.60;;;;;;;;;;5059176;28;20663;-79
2023/05/03 05:36:31;;;;;;;0.50;0.50;;;;;;;;;;5059489;28;20232;-78
2023/05/03 05:38:57;;;;;;;0.50;0.50;;;;;;;;;;5074123;28;20175;-78
2023/05/03 05:41:23;;;;;;;0.47;0.47;;;;;;;;;;5074185;28;20151;-79
2023/05/03 05:43:49;;;;;;;0.50;0.50;;;;;;;;;;5073955;28;20195;-79
2023/05/03 05:46:15;;;;;;;0.50;0.50;;;;;;;;;;5074338;28;20186;-79
2023/05/03 05:48:42;;;;;;;0.50;0.50;;;;;;;;;;5074979;28;20175;-79
2023/05/03 05:51:08;;;;;;;0.50;0.50;;;;;;;;;;5066463;28;20175;-80
2023/05/03 05:53:34;;;;;;;0.47;0.47;;;;;;;;;;5061620;28;20223;-80
2023/05/03 05:56:00;;;;;;;0.50;0.50;;;;;;;;;;5061510;28;20182;-79
2023/05/03 05:58:26;;;;;;;0.40;0.40;;;;;;;;;;5061413;28;20179;-80
2023/05/03 06:00:54;;;;;;;0.50;0.50;;;;;;;;;;5061413;28;20300;-80
2023/05/03 06:03:20;;;;;;;0.43;0.43;;;;;;;;;;5060723;28;20163;-79
2023/05/03 06:05:46;;;;;;;0.50;0.50;;;;;;;;;;5060711;28;20531;-79
2023/05/03 06:08:12;;;;;;;0.60;0.60;;;;;;;;;;5061384;28;20182;-80
2023/05/03 06:10:38;;;;;;;0.47;0.47;;;;;;;;;;5060787;28;20239;-80
2023/05/03 06:13:04;;;;;;;0.50;0.50;;;;;;;;;;5058109;28;20284;-81
2023/05/03 06:15:30;;;;;;;0.53;0.53;;;;;;;;;;5060606;28;20214;-80
2023/05/03 06:17:56;;;;;;;0.60;0.60;;;;;;;;;;5063846;28;20183;-79
2023/05/03 06:20:23;;;;;;;0.50;0.50;;;;;;;;;;5071623;28;20210;-82
2023/05/03 06:22:51;;;;;;;0.50;0.50;;;;;;;;;;5088139;23;20237;-83
2023/05/03 06:25:20;;;;;;;0.60;0.60;;;;;;;;;;5072914;28;20202;-81
2023/05/03 06:27:46;;;;;;;0.60;0.60;;;;;;;;;;5068954;28;20167;-85
2023/05/03 06:30:13;;;;;;;0.50;0.50;;;;;;;;;;5070579;28;20189;-82
2023/05/03 06:32:39;;;;;;;0.50;0.50;;;;;;;;;;5071528;28;20213;-79
2023/05/03 06:35:05;;;;;;;0.50;0.50;;;;;;;;;;5066203;28;20190;-84
2023/05/03 06:37:32;;;;;;;0.60;0.60;;;;;;;;;;5050820;28;20175;-84
2023/05/03 06:39:58;;;;;;;0.50;0.50;;;;;;;;;;5086472;28;20174;-84
2023/05/03 06:42:24;;;;;;;0.60;0.60;;;;;;;;;;5083350;28;20170;-85
2023/05/03 06:44:50;;;;;;;0.40;0.40;;;;;;;;;;5082983;28;20198;-84
2023/05/03 06:47:19;;;;;;;0.50;0.50;;;;;;;;;;5083149;28;20174;-87
2023/05/03 06:49:45;;;;;;;0.40;0.40;;;;;;;;;;5065245;28;20247;-84
2023/05/03 06:52:11;;;;;;;0.47;0.47;;;;;;;;;;5083427;28;20278;-85
2023/05/03 06:54:37;;;;;;;0.50;0.50;;;;;;;;;;5081154;28;20205;-86
2023/05/03 06:57:04;;;;;;;0.60;0.60;;;;;;;;;;5079250;28;20178;-83
2023/05/03 06:59:30;;;;;;;0.60;0.60;;;;;;;;;;5069968;28;20179;-84
2023/05/03 07:01:56;;;;;;;0.50;0.50;;;;;;;;;;5070704;28;20178;-85
2023/05/03 07:04:22;;;;;;;0.40;0.40;;;;;;;;;;5070158;28;20658;-83
2023/05/03 07:06:48;;;;;;;0.40;0.40;;;;;;;;;;5073750;28;20171;-84
2023/05/03 07:09:14;;;;;;;0.50;0.50;;;;;;;;;;5070453;28;20174;-84
2023/05/03 07:11:46;;;;;;;0.43;0.43;;;;;;;;;;5071990;28;20188;-84
2023/05/03 07:14:11;;;;;;;0.50;0.50;;;;;;;;;;5071179;28;20195;-85
2023/05/03 07:16:38;;;;;;;0.40;0.40;;;;;;;;;;5073430;28;20258;-84
2023/05/03 07:19:03;;;;;;;0.50;0.50;;;;;;;;;;5080562;28;20178;-84
2023/05/03 07:21:30;;;;;;;0.50;0.50;;;;;;;;;;5083442;28;20174;-84
2023/05/03 07:23:56;;;;;;;0.30;0.30;;;;;;;;;;5082738;28;20229;-83
2023/05/03 07:26:22;;;;;;;0.50;0.50;;;;;;;;;;5082196;28;20185;-85
2023/05/03 07:28:49;;;;;;;0.40;0.40;;;;;;;;;;5081156;28;20238;-84
2023/05/03 07:31:15;;;;;;;0.43;0.43;;;;;;;;;;5081231;28;20254;-87
2023/05/03 07:33:41;;;;;;;0.50;0.50;;;;;;;;;;5077348;28;20262;-86
2023/05/03 07:36:07;;;;;;;0.60;0.60;;;;;;;;;;5086881;28;20277;-89
2023/05/03 07:38:33;;;;;;;0.50;0.50;;;;;;;;;;5073490;28;20175;-86
2023/05/03 07:40:59;;;;;;;0.50;0.50;;;;;;;;;;5062941;28;20172;-87
2023/05/03 07:43:25;;;;;;;0.30;0.30;;;;;;;;;;5068471;28;20216;-88
2023/05/03 07:45:51;;;;;;;0.40;0.40;;;;;;;;;;5061071;28;20179;-88
2023/05/03 07:48:17;;;;;;;0.40;0.40;;;;;;;;;;5066908;28;20183;-87
2023/05/03 07:50:43;;;;;;;0.30;0.30;;;;;;;;;;5079353;28;20213;-87
2023/05/03 07:53:09;;;;;;;0.30;0.30;;;;;;;;;;5087500;28;20243;-87
2023/05/03 07:55:36;;;;;;;0.40;0.40;;;;;;;;;;5098276;28;20158;-87
2023/05/03 07:58:03;;;;;;;0.30;0.30;;;;;;;;;;5098287;28;20212;-87
2023/05/03 08:00:29;;;;;;;0.37;0.37;;;;;;;;;;5098817;28;20251;-88
2023/05/03 08:02:55;;;;;;;0.30;0.30;;;;;;;;;;5098879;28;20174;-88
2023/05/03 08:05:22;;;;;;;0.53;0.53;;;;;;;;;;5097297;28;20202;-86
2023/05/03 08:07:48;;;;;;;0.40;0.40;;;;;;;;;;5095462;28;20183;-86
2023/05/03 08:10:14;;;;;;;0.20;0.20;;;;;;;;;;5090305;28;20258;-87
2023/05/03 08:12:40;;;;;;;0.37;0.37;;;;;;;;;;5090873;28;20274;-87
2023/05/03 08:15:07;;;;;;;0.40;0.40;;;;;;;;;;5080337;28;20613;-85
2023/05/03 08:17:39;;;;;;;0.33;0.33;;;;;;;;;;5079026;28;20213;-85
2023/05/03 08:20:06;;;;;;;0.20;0.20;;;;;;;;;;5078491;28;20178;-86
2023/05/03 08:22:34;;;;;;;0.40;0.40;;;;;;;;;;5077826;28;20677;-86
2023/05/03 08:25:00;;;;;;;0.30;0.30;;;;;;;;;;5078386;28;20232;-85
2023/05/03 08:27:27;;;;;;;0.40;0.40;;;;;;;;;;5079523;28;20178;-87
2023/05/03 08:29:53;;;;;;;0.40;0.40;;;;;;;;;;5091719;28;20179;-88
2023/05/03 08:32:20;;;;;;;0.40;0.40;;;;;;;;;;5099506;28;20233;-89
2023/05/03 08:34:46;;;;;;;0.43;0.43;;;;;;;;;;5099048;28;20183;-89
2023/05/03 08:37:12;;;;;;;0.40;0.40;;;;;;;;;;5087475;28;20509;-87
2023/05/03 08:39:38;;;;;;;0.40;0.40;;;;;;;;;;5081765;28;20292;-86
2023/05/03 08:42:07;;;;;;;0.40;0.40;;;;;;;;;;5080348;28;20996;-86
2023/05/03 08:44:36;;;;;;;0.40;0.40;;;;;;;;;;5078422;28;20194;-86
2023/05/03 08:47:04;;;;;;;0.40;0.40;;;;;;;;;;5081062;28;20201;-86
2023/05/03 08:49:30;;;;;;;0.40;0.40;;;;;;;;;;5079657;28;20171;-88
2023/05/03 08:51:57;;;;;;;0.40;0.40;;;;;;;;;;5078768;28;20214;-85
2023/05/03 08:54:23;;;;;;;0.30;0.30;;;;;;;;;;5073722;28;20256;-86
2023/05/03 08:56:49;;;;;;;0.50;0.50;;;;;;;;;;5057721;28;20183;-87
2023/05/03 08:59:16;;;;;;;0.40;0.40;;;;;;;;;;5059539;28;20207;-88
2023/05/03 09:01:42;;;;;;;0.30;0.30;;;;;;;;;;5058807;28;20193;-87
2023/05/03 09:04:09;;;;;;;0.30;0.30;;;;;;;;;;5056877;28;20194;-87
2023/05/03 09:06:35;;;;;;;0.50;0.50;;;;;;;;;;5057606;28;20167;-89
2023/05/03 09:09:04;;;;;;;0.37;0.37;;;;;;;;;;5059322;28;20607;-88
2023/05/03 09:11:30;;;;;;;0.40;0.40;;;;;;;;;;5058968;28;20178;-89
2023/05/03 09:14:10;;;;;;;0.30;0.30;;;;;;;;;;5057741;28;20219;-90
2023/05/03 09:16:36;;;;;;;0.27;0.27;;;;;;;;;;5058830;28;20186;-88
2023/05/03 09:19:05;;;;;;;0.40;0.40;;;;;;;;;;5057871;28;20266;-86
2023/05/03 09:21:31;;;;;;;0.30;0.30;;;;;;;;;;5058186;28;20198;-87
2023/05/03 09:23:57;;;;;;;0.30;0.30;;;;;;;;;;5058086;28;20599;-87
2023/05/03 09:26:33;;;;;;;0.30;0.30;;;;;;;;;;5070404;28;20175;-88
2023/05/03 09:29:00;;;;;;;0.30;0.30;;;;;;;;;;5080757;28;20181;-86
2023/05/03 09:31:27;;;;;;;0.40;0.40;;;;;;;;;;5072258;28;20185;-86
2023/05/03 09:33:53;;;;;;;0.40;0.40;;;;;;;;;;5076631;28;20214;-83
2023/05/03 09:36:19;;;;;;;0.30;0.30;;;;;;;;;;5092144;28;20200;-85
2023/05/03 09:38:45;;;;;;;0.40;0.40;;;;;;;;;;5064543;28;20206;-86
2023/05/03 09:41:11;;;;;;;0.30;0.30;;;;;;;;;;5064520;28;20186;-85
2023/05/03 09:43:48;;;;;;;0.30;0.30;;;;;;;;;;5076499;28;20297;-89
2023/05/03 09:46:14;;;;;;;0.30;0.30;;;;;;;;;;5079881;28;20174;-88
2023/05/03 09:48:41;;;;;;;0.30;0.30;;;;;;;;;;5080742;28;20182;-84
2023/05/03 09:51:07;;;;;;;0.37;0.37;;;;;;;;;;5065257;28;20640;-86
2023/05/03 09:53:33;;;;;;;0.37;0.37;;;;;;;;;;5076282;28;20216;-86
2023/05/03 09:56:01;;;;;;;0.33;0.33;;;;;;;;;;5064427;28;20171;-86
2023/05/03 09:58:29;;;;;;;0.30;0.30;;;;;;;;;;5059151;28;20171;-86
2023/05/03 10:00:56;;;;;;;0.30;0.30;;;;;;;;;;5058706;28;20545;-86
2023/05/03 10:03:27;;;;;;;0.30;0.30;;;;;;;;;;5059446;28;20261;-87
2023/05/03 10:05:54;;;;;;;0.30;0.30;;;;;;;;;;5060141;28;20171;-86
2023/05/03 10:08:27;;;;;;;0.30;0.30;;;;;;;;;;5060468;28;20199;-86
2023/05/03 10:10:54;;;;;;;0.40;0.40;;;;;;;;;;5065390;28;20179;-85
2023/05/03 10:13:23;;;;;;;0.30;0.30;;;;;;;;;;5066092;28;20222;-86
2023/05/03 10:15:51;;;;;;;0.40;0.40;;;;;;;;;;5068864;28;20763;-87
2023/05/03 10:18:19;;;;;;;0.30;0.30;;;;;;;;;;5080138;28;20197;-84
2023/05/03 10:20:50;;;;;;;0.30;0.30;;;;;;;;;;5077196;28;20239;-85
2023/05/03 10:23:17;;;;;;;0.40;0.40;;;;;;;;;;5065591;28;20206;-87
2023/05/03 10:26:03;;;;;;;0.30;0.30;;;;;;;;;;5063124;28;20183;-86
2023/05/03 10:28:29;;;;;;;0.40;0.40;;;;;;;;;;5054855;28;20583;-87
2023/05/03 10:30:55;;;;;;;0.30;0.30;;;;;;;;;;5068820;28;20254;-84
2023/05/03 10:33:29;;;;;;;0.30;0.30;;;;;;;;;;5039892;28;20223;-86
2023/05/03 10:38:37;;;;;;;0.33;0.33;;;;;;;;;;5050147;28;20207;-84
2023/05/03 10:41:05;;;;;;;0.30;0.30;;;;;;;;;;5052609;28;20557;-84
2023/05/03 10:43:34;;;;;;;0.40;0.40;;;;;;;;;;5053369;28;20206;-84
2023/05/03 10:46:04;;;;;;;0.40;0.40;;;;;;;;;;5053152;28;20183;-82
2023/05/03 10:48:31;;;;;;;0.30;0.30;;;;;;;;;;5052936;28;20233;-83
2023/05/03 10:50:57;;;;;;;0.40;0.40;;;;;;;;;;5052953;28;20175;-82
2023/05/03 10:53:35;;;;;;;0.30;0.30;;;;;;;;;;5043657;28;20208;-83
2023/05/03 10:56:07;;;;;;;0.40;0.40;;;;;;;;;;5033605;28;20180;-81
2023/05/03 10:58:35;;;;;;;0.40;0.40;;;;;;;;;;5033327;28;20195;-82
2023/05/03 11:01:03;;;;;;;0.40;0.40;;;;;;;;;;5033028;28;20178;-82
2023/05/03 11:03:47;;;;;;;0.40;0.40;;;;;;;;;;5032503;28;20616;-81
2023/05/03 11:06:32;;;;;;;0.40;0.40;;;;;;;;;;5033509;28;20175;-81
2023/05/03 11:08:58;;;;;;;0.30;0.30;;;;;;;;;;5033427;28;20176;-82
2023/05/03 11:11:25;;;;;;;0.30;0.30;;;;;;;;;;5032859;28;20596;-80
2023/05/03 11:13:51;;;;;;;0.30;0.30;;;;;;;;;;5033112;28;20710;-82
2023/05/03 11:16:17;;;;;;;0.40;0.40;;;;;;;;;;5039868;28;20179;-79
2023/05/03 11:18:43;;;;;;;0.30;0.30;;;;;;;;;;5056519;28;20187;-81
2023/05/03 11:21:10;;;;;;;0.30;0.30;;;;;;;;;;5056241;28;20579;-80
2023/05/03 11:23:37;;;;;;;0.40;0.40;;;;;;;;;;5059195;28;20263;-80
2023/05/03 11:26:06;;;;;;;0.30;0.30;;;;;;;;;;5059809;28;20626;-80
2023/05/03 11:28:32;;;;;;;0.40;0.40;;;;;;;;;;5059398;28;20182;-80
2023/05/03 11:30:58;;;;;;;0.30;0.30;;;;;;;;;;5060452;28;20175;-79
2023/05/03 11:33:24;;;;;;;0.40;0.40;;;;;;;;;;5059587;28;20222;-80
2023/05/03 11:35:50;;;;;;;0.30;0.30;;;;;;;;;;5059092;28;20187;-80
2023/05/03 11:38:16;;;;;;;0.47;0.47;;;;;;;;;;5059104;28;20213;-79
2023/05/03 11:40:41;;;;;;;0.50;0.50;;;;;;;;;;5057991;28;20630;-80
2023/05/03 11:43:07;;;;;;;0.40;0.40;;;;;;;;;;5057611;28;20202;-81
2023/05/03 11:45:44;;;;;;;0.40;0.40;;;;;;;;;;5057549;28;20194;-80
2023/05/03 11:48:11;;;;;;;0.30;0.30;;;;;;;;;;5057492;28;20206;-80
2023/05/03 11:50:50;;;;;;;0.30;0.30;;;;;;;;;;5057410;28;20179;-79
2023/05/03 11:53:16;;;;;;;0.40;0.40;;;;;;;;;;5057125;28;20670;-79
2023/05/03 11:55:45;;;;;;;0.30;0.30;;;;;;;;;;5057963;28;20175;-80
2023/05/03 11:58:15;;;;;;;0.40;0.40;;;;;;;;;;5057467;28;20653;-80
2023/05/03 12:00:45;;;;;;;0.40;0.40;;;;;;;;;;5058848;28;20172;-80
2023/05/03 12:03:16;;;;;;;0.37;0.37;;;;;;;;;;5057784;28;20179;-80
2023/05/03 12:05:42;;;;;;;0.33;0.33;;;;;;;;;;5058141;28;20175;-81
2023/05/03 12:08:10;;;;;;;0.40;0.40;;;;;;;;;;5057683;28;20614;-80
2023/05/03 12:10:37;;;;;;;0.40;0.40;;;;;;;;;;5058287;28;20175;-80
2023/05/03 12:13:03;;;;;;;0.40;0.40;;;;;;;;;;5057100;28;20218;-80
2023/05/03 12:15:30;;;;;;;0.40;0.40;;;;;;;;;;5057350;28;20187;-81
2023/05/03 12:17:57;;;;;;;0.37;0.37;;;;;;;;;;5057026;28;20199;-80
2023/05/03 12:20:24;;;;;;;0.40;0.40;;;;;;;;;;5057058;28;20175;-80
2023/05/03 12:22:53;;;;;;;0.30;0.30;;;;;;;;;;5056033;28;20198;-82
2023/05/03 12:25:20;;;;;;;0.30;0.30;;;;;;;;;;5055337;28;20191;-80
2023/05/03 12:27:46;;;;;;;0.30;0.30;;;;;;;;;;5056777;28;20669;-81
2023/05/03 12:30:13;;;;;;;0.50;0.50;;;;;;;;;;5057472;28;20175;-79
2023/05/03 12:32:39;;;;;;;0.40;0.40;;;;;;;;;;5056498;28;20210;-79
2023/05/03 12:35:08;;;;;;;0.30;0.30;;;;;;;;;;5056458;28;20198;-80
2023/05/03 12:37:37;;;;;;;0.30;0.30;;;;;;;;;;5056688;28;20194;-78
2023/05/03 12:40:04;;;;;;;0.40;0.40;;;;;;;;;;5056439;28;20695;-82
2023/05/03 12:42:30;;;;;;;0.40;0.40;;;;;;;;;;5056416;28;20205;-80
2023/05/03 12:44:56;;;;;;;0.40;0.40;;;;;;;;;;5057032;28;20226;-80
2023/05/03 12:47:23;;;;;;;0.37;0.37;;;;;;;;;;5057133;28;20175;-82
2023/05/03 12:49:49;;;;;;;0.30;0.30;;;;;;;;;;5057783;28;20286;-81
2023/05/03 12:52:16;;;;;;;0.30;0.30;;;;;;;;;;5058716;28;20206;-81
2023/05/03 12:54:42;;;;;;;0.30;0.30;;;;;;;;;;5057527;28;20328;-80
2023/05/03 12:57:08;;;;;;;0.40;0.40;;;;;;;;;;5057420;28;20225;-82
2023/05/03 12:59:35;;;;;;;0.40;0.40;;;;;;;;;;5057580;28;20559;-81
2023/05/03 13:02:01;;;;;;;0.40;0.40;;;;;;;;;;5057342;28;20175;-81
2023/05/03 13:04:27;;;;;;;0.30;0.30;;;;;;;;;;5056770;28;20206;-82
2023/05/03 13:06:54;;;;;;;0.40;0.40;;;;;;;;;;5058441;28;20175;-80
2023/05/03 13:09:20;;;;;;;0.40;0.40;;;;;;;;;;5058524;28;20194;-82
2023/05/03 13:11:48;;;;;;;0.30;0.30;;;;;;;;;;5057260;28;20205;-81
2023/05/03 13:14:14;;;;;;;0.43;0.43;;;;;;;;;;5054984;28;20206;-80
2023/05/03 13:16:44;;;;;;;0.30;0.30;;;;;;;;;;5056331;28;20580;-81
2023/05/03 13:19:10;;;;;;;0.30;0.30;;;;;;;;;;5056887;28;20797;-81
2023/05/03 13:21:36;;;;;;;0.47;0.47;;;;;;;;;;5056783;28;20179;-80
2023/05/03 13:24:02;;;;;;;0.40;0.40;;;;;;;;;;5056394;28;20195;-82
2023/05/03 13:26:28;;;;;;;0.40;0.40;;;;;;;;;;5057044;28;20175;-81
2023/05/03 13:28:54;;;;;;;0.30;0.30;;;;;;;;;;5076923;28;20370;-78
2023/05/03 13:31:23;;;;;;;0.30;0.30;;;;;;;;;;5077853;28;20179;-79
2023/05/03 13:33:52;;;;;;;0.30;0.30;;;;;;;;;;5077769;28;20211;-79
2023/05/03 13:36:18;;;;;;;0.40;0.40;;;;;;;;;;5077777;28;20213;-78
2023/05/03 13:38:45;;;;;;;0.40;0.40;;;;;;;;;;5072534;28;20294;-80
2023/05/03 13:41:11;;;;;;;0.33;0.33;;;;;;;;;;5055914;28;20183;-80
2023/05/03 13:43:37;;;;;;;0.40;0.40;;;;;;;;;;5054304;28;20281;-80
2023/05/03 13:46:03;;;;;;;0.40;0.40;;;;;;;;;;5054332;28;20211;-81
2023/05/03 13:48:29;;;;;;;0.30;0.30;;;;;;;;;;5054616;28;20171;-78
2023/05/03 13:50:55;;;;;;;0.30;0.30;;;;;;;;;;5055659;28;20186;-81
2023/05/03 13:53:21;;;;;;;0.30;0.30;;;;;;;;;;5054226;28;20214;-79
2023/05/03 13:55:47;;;;;;;0.40;0.40;;;;;;;;;;5054712;28;20194;-80
2023/05/03 13:58:13;;;;;;;0.40;0.40;;;;;;;;;;5055329;28;20202;-81
2023/05/03 14:00:39;;;;;;;0.43;0.43;;;;;;;;;;5055238;28;20171;-80
2023/05/03 14:03:06;;;;;;;0.30;0.30;;;;;;;;;;5055492;28;20191;-80
2023/05/03 14:05:32;;;;;;;0.40;0.40;;;;;;;;;;5053496;28;20283;-82
2023/05/03 14:07:58;;;;;;;0.30;0.30;;;;;;;;;;5047830;28;20167;-81
2023/05/03 14:10:24;;;;;;;0.40;0.40;;;;;;;;;;5051768;28;20171;-80
2023/05/03 14:12:51;;;;;;;0.40;0.40;;;;;;;;;;5057001;28;20207;-80
2023/05/03 14:15:17;;;;;;;0.40;0.40;;;;;;;;;;5057991;28;20553;-80
2023/05/03 14:17:46;;;;;;;0.30;0.30;;;;;;;;;;5051026;28;20529;-81
2023/05/03 14:20:15;;;;;;;0.37;0.37;;;;;;;;;;5036951;28;20182;-79
2023/05/03 14:22:41;;;;;;;0.30;0.30;;;;;;;;;;5034914;28;20518;-80
2023/05/03 14:25:08;;;;;;;0.30;0.30;;;;;;;;;;5036346;28;20206;-80
2023/05/03 14:27:34;;;;;;;0.40;0.40;;;;;;;;;;5034292;28;20667;-79
2023/05/03 14:30:00;;;;;;;0.40;0.40;;;;;;;;;;5036334;28;20191;-81
2023/05/03 14:32:26;;;;;;;0.40;0.40;;;;;;;;;;5034707;28;20249;-80
2023/05/03 14:34:52;;;;;;;0.40;0.40;;;;;;;;;;5043215;28;20219;-80
2023/05/03 14:37:18;;;;;;;0.30;0.30;;;;;;;;;;5050553;28;20186;-80
2023/05/03 14:39:44;;;;;;;0.40;0.40;;;;;;;;;;5039090;28;20265;-79
2023/05/03 14:42:11;;;;;;;0.30;0.30;;;;;;;;;;5043365;28;20183;-82
2023/05/03 14:44:37;;;;;;;0.40;0.40;;;;;;;;;;5046316;28;20600;-80